sensor_id;sensor_type;location;lat;lon;timestamp;pressure;altitude;pressure_sealevel;temperature;humidity
64933;BME280;51446;53.850;10.662;2024-01-25T00:01:05;101565.69;;;7.17;100.00
64933;BME280;51446;53.850;10.662;2024-01-25T00:03:31;101570.91;;;7.17;100.00
64933;BME280;51446;53.850;10.662;2024-01-25T00:05:56;101573.44;;;7.15;100.00
64933;BME280;51446;53.850;10.662;2024-01-25T00:08:21;101574.88;;;7.08;100.00
64933;BME280;51446;53.850;10.662;2024-01-25T00:10:47;101574.06;;;7.09;100.00
64933;BME280;51446;53.850;10.662;2024-01-25T00:13:12;101570.47;;;7.06;100.00
64933;BME280;51446;53.850;10.662;2024-01-25T00:15:38;101580.16;;;7.10;100.00
64933;BME280;51446;53.850;10.662;2024-01-25T00:18:03;101574.25;;;7.14;100.00
64933;BME280;51446;53.850;10.662;2024-01-25T00:20:28;101579.41;;;7.12;100.00
64933;BME280;51446;53.850;10.662;2024-01-25T00:22:53;101581.91;;;7.09;100.00
64933;BME280;51446;53.850;10.662;2024-01-25T00:25:19;101573.94;;;7.06;100.00
64933;BME280;51446;53.850;10.662;2024-01-25T00:27:44;101581.22;;;7.14;100.00
64933;BME280;51446;53.850;10.662;2024-01-25T00:30:10;101580.88;;;7.06;100.00
64933;BME280;51446;53.850;10.662;2024-01-25T00:32:35;101583.88;;;7.15;100.00
64933;BME280;51446;53.850;10.662;2024-01-25T00:35:02;101591.44;;;7.09;100.00
64933;BME280;51446;53.850;10.662;2024-01-25T00:37:27;101593.84;;;7.04;100.00
64933;BME280;51446;53.850;10.662;2024-01-25T00:39:53;101587.94;;;7.08;100.00
64933;BME280;51446;53.850;10.662;2024-01-25T00:42:21;101588.50;;;7.01;100.00
64933;BME280;51446;53.850;10.662;2024-01-25T00:44:47;101587.81;;;7.05;100.00
64933;BME280;51446;53.850;10.662;2024-01-25T00:47:12;101595.31;;;6.98;100.00
64933;BME280;51446;53.850;10.662;2024-01-25T00:49:38;101601.53;;;7.01;100.00
64933;BME280;51446;53.850;10.662;2024-01-25T00:52:03;101610.03;;;6.97;100.00
64933;BME280;51446;53.850;10.662;2024-01-25T00:54:30;101607.53;;;6.99;100.00
64933;BME280;51446;53.850;10.662;2024-01-25T00:56:55;101615.41;;;7.00;100.00
64933;BME280;51446;53.850;10.662;2024-01-25T00:59:21;101614.44;;;6.98;100.00
64933;BME280;51446;53.850;10.662;2024-01-25T01:01:47;101626.72;;;7.01;100.00
64933;BME280;51446;53.850;10.662;2024-01-25T01:04:14;101613.81;;;7.04;100.00
64933;BME280;51446;53.850;10.662;2024-01-25T01:06:39;101621.63;;;7.04;100.00
64933;BME280;51446;53.850;10.662;2024-01-25T01:09:05;101620.97;;;7.08;100.00
64933;BME280;51446;53.850;10.662;2024-01-25T01:11:30;101619.03;;;7.04;100.00
64933;BME280;51446;53.850;10.662;2024-01-25T01:13:55;101625.06;;;7.03;100.00
64933;BME280;51446;53.850;10.662;2024-01-25T01:16:21;101636.53;;;7.06;100.00
64933;BME280;51446;53.850;10.662;2024-01-25T01:18:46;101627.00;;;7.07;100.00
64933;BME280;51446;53.850;10.662;2024-01-25T01:21:11;101650.53;;;7.08;100.00
64933;BME280;51446;53.850;10.662;2024-01-25T01:23:36;101646.84;;;7.03;100.00
64933;BME280;51446;53.850;10.662;2024-01-25T01:26:04;101653.13;;;7.08;100.00
64933;BME280;51446;53.850;10.662;2024-01-25T01:28:29;101661.88;;;7.09;100.00
64933;BME280;51446;53.850;10.662;2024-01-25T01:30:54;101648.84;;;7.09;100.00
64933;BME280;51446;53.850;10.662;2024-01-25T01:33:19;101655.69;;;7.07;100.00
64933;BME280;51446;53.850;10.662;2024-01-25T01:35:44;101638.03;;;7.01;100.00
64933;BME280;51446;53.850;10.662;2024-01-25T01:38:10;101645.19;;;7.05;100.00
64933;BME280;51446;53.850;10.662;2024-01-25T01:40:35;101647.84;;;7.07;100.00
64933;BME280;51446;53.850;10.662;2024-01-25T01:43:01;101642.63;;;7.07;100.00
64933;BME280;51446;53.850;10.662;2024-01-25T01:45:26;101648.59;;;7.04;100.00
64933;BME280;51446;53.850;10.662;2024-01-25T01:47:52;101639.28;;;7.09;100.00
64933;BME280;51446;53.850;10.662;2024-01-25T01:50:18;101634.75;;;7.05;100.00
64933;BME280;51446;53.850;10.662;2024-01-25T01:52:43;101625.91;;;7.02;100.00
64933;BME280;51446;53.850;10.662;2024-01-25T01:55:08;101628.78;;;7.08;100.00
64933;BME280;51446;53.850;10.662;2024-01-25T01:57:35;101631.53;;;7.11;100.00
64933;BME280;51446;53.850;10.662;2024-01-25T02:00:03;101628.72;;;7.06;100.00
64933;BME280;51446;53.850;10.662;2024-01-25T02:02:29;101649.72;;;7.09;100.00
64933;BME280;51446;53.850;10.662;2024-01-25T02:04:55;101666.25;;;7.10;100.00
64933;BME280;51446;53.850;10.662;2024-01-25T02:07:20;101666.84;;;7.04;100.00
64933;BME280;51446;53.850;10.662;2024-01-25T02:09:45;101677.53;;;7.09;100.00
64933;BME280;51446;53.850;10.662;2024-01-25T02:12:10;101672.38;;;7.10;100.00
64933;BME280;51446;53.850;10.662;2024-01-25T02:14:36;101678.53;;;7.12;100.00
64933;BME280;51446;53.850;10.662;2024-01-25T02:17:01;101662.56;;;7.05;100.00
64933;BME280;51446;53.850;10.662;2024-01-25T02:19:26;101680.94;;;7.08;100.00
64933;BME280;51446;53.850;10.662;2024-01-25T02:21:53;101697.72;;;7.13;100.00
64933;BME280;51446;53.850;10.662;2024-01-25T02:24:18;101709.09;;;7.15;100.00
64933;BME280;51446;53.850;10.662;2024-01-25T02:26:44;101714.44;;;7.18;100.00
64933;BME280;51446;53.850;10.662;2024-01-25T02:29:09;101710.66;;;7.11;100.00
64933;BME280;51446;53.850;10.662;2024-01-25T02:31:35;101712.44;;;7.12;100.00
64933;BME280;51446;53.850;10.662;2024-01-25T02:34:00;101707.97;;;7.10;100.00
64933;BME280;51446;53.850;10.662;2024-01-25T02:36:25;101713.06;;;7.07;100.00
64933;BME280;51446;53.850;10.662;2024-01-25T02:38:50;101713.97;;;7.07;100.00
64933;BME280;51446;53.850;10.662;2024-01-25T02:41:16;101710.25;;;7.22;100.00
64933;BME280;51446;53.850;10.662;2024-01-25T02:43:41;101702.22;;;7.17;100.00
64933;BME280;51446;53.850;10.662;2024-01-25T02:46:07;101713.56;;;7.18;100.00
64933;BME280;51446;53.850;10.662;2024-01-25T02:48:32;101708.28;;;7.16;100.00
64933;BME280;51446;53.850;10.662;2024-01-25T02:50:57;101702.44;;;7.22;100.00
64933;BME280;51446;53.850;10.662;2024-01-25T02:53:23;101708.34;;;7.18;100.00
64933;BME280;51446;53.850;10.662;2024-01-25T02:55:48;101700.63;;;7.21;100.00
64933;BME280;51446;53.850;10.662;2024-01-25T02:58:13;101706.59;;;7.18;100.00
64933;BME280;51446;53.850;10.662;2024-01-25T03:00:39;101705.88;;;7.21;100.00
64933;BME280;51446;53.850;10.662;2024-01-25T03:03:04;101717.09;;;7.20;100.00
64933;BME280;51446;53.850;10.662;2024-01-25T03:05:29;101717.03;;;7.18;100.00
64933;BME280;51446;53.850;10.662;2024-01-25T03:07:55;101708.47;;;7.21;100.00
64933;BME280;51446;53.850;10.662;2024-01-25T03:10:20;101738.47;;;7.31;100.00
64933;BME280;51446;53.850;10.662;2024-01-25T03:12:45;101735.81;;;7.29;100.00
64933;BME280;51446;53.850;10.662;2024-01-25T03:15:11;101743.47;;;7.26;100.00
64933;BME280;51446;53.850;10.662;2024-01-25T03:17:36;101740.03;;;7.27;100.00
64933;BME280;51446;53.850;10.662;2024-01-25T03:20:02;101756.44;;;7.24;100.00
64933;BME280;51446;53.850;10.662;2024-01-25T03:22:27;101741.56;;;7.22;100.00
64933;BME280;51446;53.850;10.662;2024-01-25T03:24:52;101735.31;;;7.18;100.00
64933;BME280;51446;53.850;10.662;2024-01-25T03:27:18;101751.09;;;7.21;100.00
64933;BME280;51446;53.850;10.662;2024-01-25T03:29:43;101752.00;;;7.22;100.00
64933;BME280;51446;53.850;10.662;2024-01-25T03:32:13;101739.63;;;7.18;100.00
64933;BME280;51446;53.850;10.662;2024-01-25T03:34:38;101756.09;;;7.17;100.00
64933;BME280;51446;53.850;10.662;2024-01-25T03:37:03;101750.34;;;7.24;100.00
64933;BME280;51446;53.850;10.662;2024-01-25T03:39:29;101748.41;;;7.20;100.00
64933;BME280;51446;53.850;10.662;2024-01-25T03:41:54;101767.41;;;7.17;100.00
64933;BME280;51446;53.850;10.662;2024-01-25T03:44:19;101769.28;;;7.20;100.00
64933;BME280;51446;53.850;10.662;2024-01-25T03:46:44;101775.19;;;7.16;100.00
64933;BME280;51446;53.850;10.662;2024-01-25T03:49:10;101777.84;;;7.17;100.00
64933;BME280;51446;53.850;10.662;2024-01-25T03:51:35;101788.28;;;7.17;100.00
64933;BME280;51446;53.850;10.662;2024-01-25T03:54:00;101789.06;;;7.15;100.00
64933;BME280;51446;53.850;10.662;2024-01-25T03:56:25;101786.28;;;7.11;100.00
64933;BME280;51446;53.850;10.662;2024-01-25T03:58:52;101782.13;;;7.15;100.00
64933;BME280;51446;53.850;10.662;2024-01-25T04:01:17;101775.72;;;7.08;100.00
64933;BME280;51446;53.850;10.662;2024-01-25T04:03:42;101782.94;;;7.14;100.00
64933;BME280;51446;53.850;10.662;2024-01-25T04:06:08;101798.44;;;7.11;100.00
64933;BME280;51446;53.850;10.662;2024-01-25T04:08:33;101806.47;;;7.16;100.00
64933;BME280;51446;53.850;10.662;2024-01-25T04:10:58;101807.25;;;7.13;100.00
64933;BME280;51446;53.850;10.662;2024-01-25T04:13:23;101819.31;;;7.11;100.00
64933;BME280;51446;53.850;10.662;2024-01-25T04:15:49;101816.44;;;7.24;100.00
64933;BME280;51446;53.850;10.662;2024-01-25T04:18:14;101821.31;;;7.17;100.00
64933;BME280;51446;53.850;10.662;2024-01-25T04:20:41;101819.53;;;7.16;100.00
64933;BME280;51446;53.850;10.662;2024-01-25T04:23:08;101809.75;;;7.11;100.00
64933;BME280;51446;53.850;10.662;2024-01-25T04:25:33;101821.25;;;7.15;100.00
64933;BME280;51446;53.850;10.662;2024-01-25T04:27:59;101813.22;;;7.10;100.00
64933;BME280;51446;53.850;10.662;2024-01-25T04:30:25;101829.88;;;7.14;100.00
64933;BME280;51446;53.850;10.662;2024-01-25T04:32:50;101826.41;;;7.14;100.00
64933;BME280;51446;53.850;10.662;2024-01-25T04:35:15;101819.25;;;7.09;100.00
64933;BME280;51446;53.850;10.662;2024-01-25T04:37:40;101799.25;;;7.10;100.00
64933;BME280;51446;53.850;10.662;2024-01-25T04:40:06;101820.97;;;7.09;100.00
64933;BME280;51446;53.850;10.662;2024-01-25T04:42:32;101801.47;;;7.01;100.00
64933;BME280;51446;53.850;10.662;2024-01-25T04:44:57;101814.28;;;6.96;100.00
64933;BME280;51446;53.850;10.662;2024-01-25T04:47:22;101813.63;;;7.00;100.00
64933;BME280;51446;53.850;10.662;2024-01-25T04:49:48;101832.53;;;6.96;100.00
64933;BME280;51446;53.850;10.662;2024-01-25T04:52:13;101817.50;;;6.90;100.00
64933;BME280;51446;53.850;10.662;2024-01-25T04:54:38;101810.09;;;7.00;100.00
64933;BME280;51446;53.850;10.662;2024-01-25T04:57:04;101820.25;;;6.93;100.00
64933;BME280;51446;53.850;10.662;2024-01-25T04:59:34;101825.38;;;6.92;100.00
64933;BME280;51446;53.850;10.662;2024-01-25T05:01:59;101816.91;;;6.96;100.00
64933;BME280;51446;53.850;10.662;2024-01-25T05:04:25;101829.78;;;6.93;100.00
64933;BME280;51446;53.850;10.662;2024-01-25T05:06:50;101840.44;;;6.98;100.00
64933;BME280;51446;53.850;10.662;2024-01-25T05:09:15;101843.72;;;6.93;100.00
64933;BME280;51446;53.850;10.662;2024-01-25T05:11:40;101848.03;;;6.93;100.00
64933;BME280;51446;53.850;10.662;2024-01-25T05:14:06;101851.25;;;6.87;100.00
64933;BME280;51446;53.850;10.662;2024-01-25T05:16:32;101837.69;;;6.76;100.00
64933;BME280;51446;53.850;10.662;2024-01-25T05:18:57;101857.34;;;6.88;100.00
64933;BME280;51446;53.850;10.662;2024-01-25T05:21:23;101857.19;;;6.85;100.00
64933;BME280;51446;53.850;10.662;2024-01-25T05:23:48;101871.84;;;6.83;100.00
64933;BME280;51446;53.850;10.662;2024-01-25T05:26:13;101861.34;;;6.81;100.00
64933;BME280;51446;53.850;10.662;2024-01-25T05:28:39;101876.94;;;6.80;100.00
64933;BME280;51446;53.850;10.662;2024-01-25T05:31:04;101887.50;;;6.83;100.00
64933;BME280;51446;53.850;10.662;2024-01-25T05:33:30;101890.88;;;6.80;100.00
64933;BME280;51446;53.850;10.662;2024-01-25T05:35:56;101894.38;;;6.81;100.00
64933;BME280;51446;53.850;10.662;2024-01-25T05:38:21;101899.50;;;6.79;100.00
64933;BME280;51446;53.850;10.662;2024-01-25T05:40:46;101889.75;;;6.75;100.00
64933;BME280;51446;53.850;10.662;2024-01-25T05:43:11;101900.38;;;6.80;100.00
64933;BME280;51446;53.850;10.662;2024-01-25T05:45:37;101899.50;;;6.79;100.00
64933;BME280;51446;53.850;10.662;2024-01-25T05:48:02;101905.53;;;6.78;100.00
64933;BME280;51446;53.850;10.662;2024-01-25T05:50:27;101902.94;;;6.78;100.00
64933;BME280;51446;53.850;10.662;2024-01-25T05:52:52;101911.66;;;6.79;100.00
64933;BME280;51446;53.850;10.662;2024-01-25T05:55:18;101919.72;;;6.83;100.00
64933;BME280;51446;53.850;10.662;2024-01-25T05:57:43;101915.97;;;6.78;100.00
64933;BME280;51446;53.850;10.662;2024-01-25T06:00:12;101926.47;;;6.80;100.00
64933;BME280;51446;53.850;10.662;2024-01-25T06:02:38;101941.97;;;6.76;100.00
64933;BME280;51446;53.850;10.662;2024-01-25T06:05:04;101934.94;;;6.75;100.00
64933;BME280;51446;53.850;10.662;2024-01-25T06:07:29;101940.16;;;6.75;100.00
64933;BME280;51446;53.850;10.662;2024-01-25T06:09:54;101954.84;;;6.73;100.00
64933;BME280;51446;53.850;10.662;2024-01-25T06:12:20;101950.44;;;6.72;100.00
64933;BME280;51446;53.850;10.662;2024-01-25T06:14:45;101972.22;;;6.73;100.00
64933;BME280;51446;53.850;10.662;2024-01-25T06:17:10;101965.78;;;6.66;100.00
64933;BME280;51446;53.850;10.662;2024-01-25T06:19:36;101982.88;;;6.77;100.00
64933;BME280;51446;53.850;10.662;2024-01-25T06:22:01;101991.25;;;6.72;100.00
64933;BME280;51446;53.850;10.662;2024-01-25T06:24:27;101992.97;;;6.71;100.00
64933;BME280;51446;53.850;10.662;2024-01-25T06:26:53;101997.50;;;6.75;100.00
64933;BME280;51446;53.850;10.662;2024-01-25T06:29:18;101998.28;;;6.73;100.00
64933;BME280;51446;53.850;10.662;2024-01-25T06:31:44;101998.28;;;6.73;100.00
64933;BME280;51446;53.850;10.662;2024-01-25T06:34:10;101994.69;;;6.71;100.00
64933;BME280;51446;53.850;10.662;2024-01-25T06:36:35;102016.38;;;6.70;100.00
64933;BME280;51446;53.850;10.662;2024-01-25T06:39:00;102013.66;;;6.68;100.00
64933;BME280;51446;53.850;10.662;2024-01-25T06:41:25;102013.50;;;6.65;100.00
64933;BME280;51446;53.850;10.662;2024-01-25T06:43:51;102019.94;;;6.72;100.00
64933;BME280;51446;53.850;10.662;2024-01-25T06:46:16;102007.41;;;6.65;100.00
64933;BME280;51446;53.850;10.662;2024-01-25T06:48:41;102025.56;;;6.63;100.00
64933;BME280;51446;53.850;10.662;2024-01-25T06:51:06;102015.06;;;6.62;100.00
64933;BME280;51446;53.850;10.662;2024-01-25T06:53:32;102036.00;;;6.63;100.00
64933;BME280;51446;53.850;10.662;2024-01-25T06:55:57;102029.13;;;6.65;100.00
64933;BME280;51446;53.850;10.662;2024-01-25T06:58:22;102038.44;;;6.60;100.00
64933;BME280;51446;53.850;10.662;2024-01-25T07:00:48;102041.78;;;6.57;100.00
64933;BME280;51446;53.850;10.662;2024-01-25T07:03:13;102044.47;;;6.59;100.00
64933;BME280;51446;53.850;10.662;2024-01-25T07:05:40;102056.53;;;6.57;100.00
64933;BME280;51446;53.850;10.662;2024-01-25T07:08:05;102041.78;;;6.57;100.00
64933;BME280;51446;53.850;10.662;2024-01-25T07:10:32;102062.63;;;6.57;100.00
64933;BME280;51446;53.850;10.662;2024-01-25T07:12:57;102066.03;;;6.56;100.00
64933;BME280;51446;53.850;10.662;2024-01-25T07:15:23;102067.53;;;6.51;100.00
64933;BME280;51446;53.850;10.662;2024-01-25T07:17:48;102062.41;;;6.53;100.00
64933;BME280;51446;53.850;10.662;2024-01-25T07:20:13;102069.13;;;6.49;100.00
64933;BME280;51446;53.850;10.662;2024-01-25T07:22:40;102065.72;;;6.50;100.00
64933;BME280;51446;53.850;10.662;2024-01-25T07:25:05;102072.56;;;6.48;100.00
64933;BME280;51446;53.850;10.662;2024-01-25T07:27:30;102084.94;;;6.52;100.00
64933;BME280;51446;53.850;10.662;2024-01-25T07:29:56;102091.78;;;6.50;100.00
64933;BME280;51446;53.850;10.662;2024-01-25T07:32:22;102094.47;;;6.52;100.00
64933;BME280;51446;53.850;10.662;2024-01-25T07:34:49;102107.50;;;6.52;100.00
64933;BME280;51446;53.850;10.662;2024-01-25T07:37:15;102097.09;;;6.52;100.00
64933;BME280;51446;53.850;10.662;2024-01-25T07:39:41;102114.69;;;6.56;100.00
64933;BME280;51446;53.850;10.662;2024-01-25T07:42:06;102105.38;;;6.61;100.00
64933;BME280;51446;53.850;10.662;2024-01-25T07:44:31;102095.34;;;6.52;100.00
64933;BME280;51446;53.850;10.662;2024-01-25T07:46:57;102095.28;;;6.51;100.00
64933;BME280;51446;53.850;10.662;2024-01-25T07:49:22;102098.97;;;6.54;100.00
64933;BME280;51446;53.850;10.662;2024-01-25T07:51:47;102085.09;;;6.55;100.00
64933;BME280;51446;53.850;10.662;2024-01-25T07:54:12;102100.72;;;6.55;100.00
64933;BME280;51446;53.850;10.662;2024-01-25T07:56:38;102097.81;;;6.49;100.00
64933;BME280;51446;53.850;10.662;2024-01-25T07:59:03;102092.66;;;6.51;100.00
64933;BME280;51446;53.850;10.662;2024-01-25T08:01:28;102089.59;;;6.58;100.00
64933;BME280;51446;53.850;10.662;2024-01-25T08:03:54;102093.19;;;6.60;100.00
64933;BME280;51446;53.850;10.662;2024-01-25T08:06:19;102101.97;;;6.62;100.00
64933;BME280;51446;53.850;10.662;2024-01-25T08:08:44;102100.09;;;6.59;100.00
64933;BME280;51446;53.850;10.662;2024-01-25T08:11:09;102095.47;;;6.70;100.00
64933;BME280;51446;53.850;10.662;2024-01-25T08:13:35;102106.22;;;6.60;100.00
64933;BME280;51446;53.850;10.662;2024-01-25T08:16:00;102113.06;;;6.74;100.00
64933;BME280;51446;53.850;10.662;2024-01-25T08:18:25;102112.06;;;6.72;100.00
64933;BME280;51446;53.850;10.662;2024-01-25T08:20:54;102120.97;;;6.76;100.00
64933;BME280;51446;53.850;10.662;2024-01-25T08:23:19;102122.63;;;7.08;100.00
64933;BME280;51446;53.850;10.662;2024-01-25T08:25:45;102130.94;;;7.18;100.00
64933;BME280;51446;53.850;10.662;2024-01-25T08:28:10;102129.81;;;7.12;100.00
64933;BME280;51446;53.850;10.662;2024-01-25T08:30:35;102132.94;;;6.89;100.00
64933;BME280;51446;53.850;10.662;2024-01-25T08:33:00;102141.31;;;7.00;100.00
64933;BME280;51446;53.850;10.662;2024-01-25T08:35:26;102146.59;;;7.01;100.00
64933;BME280;51446;53.850;10.662;2024-01-25T08:37:51;102143.91;;;7.00;100.00
64933;BME280;51446;53.850;10.662;2024-01-25T08:40:17;102142.31;;;7.02;100.00
64933;BME280;51446;53.850;10.662;2024-01-25T08:42:42;102140.34;;;6.81;100.00
64933;BME280;51446;53.850;10.662;2024-01-25T08:45:08;102152.31;;;6.77;100.00
64933;BME280;51446;53.850;10.662;2024-01-25T08:47:35;102118.50;;;6.79;100.00
64933;BME280;51446;53.850;10.662;2024-01-25T08:50:00;102140.75;;;6.89;100.00
64933;BME280;51446;53.850;10.662;2024-01-25T08:52:25;102158.41;;;6.78;100.00
64933;BME280;51446;53.850;10.662;2024-01-25T08:54:52;102154.03;;;6.77;100.00
64933;BME280;51446;53.850;10.662;2024-01-25T08:57:17;102172.44;;;6.97;100.00
64933;BME280;51446;53.850;10.662;2024-01-25T08:59:42;102167.88;;;6.92;100.00
64933;BME280;51446;53.850;10.662;2024-01-25T09:02:08;102176.44;;;6.90;100.00
64933;BME280;51446;53.850;10.662;2024-01-25T09:04:33;102179.16;;;6.91;100.00
64933;BME280;51446;53.850;10.662;2024-01-25T09:06:59;102174.81;;;6.92;100.00
64933;BME280;51446;53.850;10.662;2024-01-25T09:09:24;102181.44;;;7.02;100.00
64933;BME280;51446;53.850;10.662;2024-01-25T09:11:49;102179.03;;;6.90;100.00
64933;BME280;51446;53.850;10.662;2024-01-25T09:14:15;102189.50;;;7.06;100.00
64933;BME280;51446;53.850;10.662;2024-01-25T09:16:40;102198.53;;;7.13;100.00
64933;BME280;51446;53.850;10.662;2024-01-25T09:19:05;102171.47;;;7.11;100.00
64933;BME280;51446;53.850;10.662;2024-01-25T09:21:30;102185.59;;;7.15;100.00
64933;BME280;51446;53.850;10.662;2024-01-25T09:23:56;102199.09;;;7.24;100.00
64933;BME280;51446;53.850;10.662;2024-01-25T09:26:21;102196.88;;;7.48;100.00
64933;BME280;51446;53.850;10.662;2024-01-25T09:48:58;102227.03;;;7.94;100.00
64933;BME280;51446;53.850;10.662;2024-01-25T09:51:23;102226.59;;;8.75;100.00
64933;BME280;51446;53.850;10.662;2024-01-25T09:53:49;102233.22;;;8.86;100.00
64933;BME280;51446;53.850;10.662;2024-01-25T09:56:15;102228.78;;;9.05;100.00
64933;BME280;51446;53.850;10.662;2024-01-25T09:58:44;102236.97;;;8.55;100.00
64933;BME280;51446;53.850;10.662;2024-01-25T10:01:13;102232.06;;;9.38;100.00
64933;BME280;51446;53.850;10.662;2024-01-25T10:03:42;102232.94;;;9.58;100.00
64933;BME280;51446;53.850;10.662;2024-01-25T10:06:08;102231.09;;;9.77;100.00
64933;BME280;51446;53.850;10.662;2024-01-25T10:08:34;102239.38;;;10.51;100.00
64933;BME280;51446;53.850;10.662;2024-01-25T10:10:59;102239.19;;;10.04;100.00
64933;BME280;51446;53.850;10.662;2024-01-25T10:13:26;102254.53;;;9.73;100.00
64933;BME280;51446;53.850;10.662;2024-01-25T10:15:51;102256.34;;;10.17;100.00
64933;BME280;51446;53.850;10.662;2024-01-25T10:18:17;102254.97;;;10.69;100.00
64933;BME280;51446;53.850;10.662;2024-01-25T10:20:42;102262.16;;;9.88;100.00
64933;BME280;51446;53.850;10.662;2024-01-25T10:23:08;102257.81;;;10.52;100.00
64933;BME280;51446;53.850;10.662;2024-01-25T10:25:37;102251.31;;;10.65;100.00
64933;BME280;51446;53.850;10.662;2024-01-25T10:28:06;102258.56;;;10.50;100.00
64933;BME280;51446;53.850;10.662;2024-01-25T10:30:33;102269.34;;;10.35;100.00
64933;BME280;51446;53.850;10.662;2024-01-25T10:32:59;102261.44;;;11.24;100.00
64933;BME280;51446;53.850;10.662;2024-01-25T10:35:25;102266.22;;;9.41;100.00
64933;BME280;51446;53.850;10.662;2024-01-25T10:37:51;102276.34;;;10.15;100.00
64933;BME280;51446;53.850;10.662;2024-01-25T10:40:18;102272.97;;;10.59;100.00
64933;BME280;51446;53.850;10.662;2024-01-25T10:42:44;102274.34;;;9.47;100.00
64933;BME280;51446;53.850;10.662;2024-01-25T10:45:10;102275.75;;;9.01;100.00
64933;BME280;51446;53.850;10.662;2024-01-25T10:47:35;102274.91;;;9.20;100.00
64933;BME280;51446;53.850;10.662;2024-01-25T10:50:01;102260.44;;;10.75;100.00
64933;BME280;51446;53.850;10.662;2024-01-25T10:52:30;102259.03;;;10.61;100.00
64933;BME280;51446;53.850;10.662;2024-01-25T10:54:56;102263.13;;;11.23;100.00
64933;BME280;51446;53.850;10.662;2024-01-25T10:57:22;102270.03;;;10.74;100.00
64933;BME280;51446;53.850;10.662;2024-01-25T10:59:48;102276.22;;;10.33;100.00
64933;BME280;51446;53.850;10.662;2024-01-25T11:02:13;102282.81;;;9.42;100.00
64933;BME280;51446;53.850;10.662;2024-01-25T11:04:38;102285.44;;;9.22;100.00
64933;BME280;51446;53.850;10.662;2024-01-25T11:07:06;102289.91;;;9.44;100.00
64933;BME280;51446;53.850;10.662;2024-01-25T11:09:33;102287.34;;;10.92;100.00
64933;BME280;51446;53.850;10.662;2024-01-25T11:12:00;102279.22;;;10.86;100.00
64933;BME280;51446;53.850;10.662;2024-01-25T11:14:25;102294.34;;;9.45;100.00
64933;BME280;51446;53.850;10.662;2024-01-25T11:16:51;102286.44;;;9.65;100.00
64933;BME280;51446;53.850;10.662;2024-01-25T11:19:21;102285.31;;;9.99;100.00
64933;BME280;51446;53.850;10.662;2024-01-25T11:21:48;102281.25;;;9.86;100.00
64933;BME280;51446;53.850;10.662;2024-01-25T11:24:15;102276.03;;;10.28;100.00
64933;BME280;51446;53.850;10.662;2024-01-25T11:26:44;102281.16;;;9.63;100.00
64933;BME280;51446;53.850;10.662;2024-01-25T11:29:10;102278.72;;;9.68;100.00
64933;BME280;51446;53.850;10.662;2024-01-25T11:31:39;102272.16;;;9.78;100.00
64933;BME280;51446;53.850;10.662;2024-01-25T11:34:05;102274.34;;;9.47;100.00
64933;BME280;51446;53.850;10.662;2024-01-25T11:36:30;102277.13;;;9.31;100.00
64933;BME280;51446;53.850;10.662;2024-01-25T11:38:56;102280.06;;;9.99;100.00
64933;BME280;51446;53.850;10.662;2024-01-25T11:41:22;102277.41;;;10.39;100.00
64933;BME280;51446;53.850;10.662;2024-01-25T11:43:48;102281.66;;;10.16;100.00
64933;BME280;51446;53.850;10.662;2024-01-25T11:46:14;102288.53;;;10.13;100.00
64933;BME280;51446;53.850;10.662;2024-01-25T11:48:40;102279.41;;;9.83;100.00
64933;BME280;51446;53.850;10.662;2024-01-25T11:51:06;102291.44;;;10.63;100.00
64933;BME280;51446;53.850;10.662;2024-01-25T11:53:31;102297.91;;;10.29;100.00
64933;BME280;51446;53.850;10.662;2024-01-25T11:55:57;102294.94;;;10.40;100.00
64933;BME280;51446;53.850;10.662;2024-01-25T11:58:23;102289.16;;;10.07;100.00
64933;BME280;51446;53.850;10.662;2024-01-25T12:00:48;102291.44;;;9.99;100.00
64933;BME280;51446;53.850;10.662;2024-01-25T12:03:14;102279.88;;;10.15;100.00
64933;BME280;51446;53.850;10.662;2024-01-25T12:05:40;102286.72;;;10.12;100.00
64933;BME280;51446;53.850;10.662;2024-01-25T12:08:12;102278.06;;;9.33;100.00
64933;BME280;51446;53.850;10.662;2024-01-25T12:10:38;102293.84;;;8.77;100.00
64933;BME280;51446;53.850;10.662;2024-01-25T12:13:05;102289.06;;;8.50;100.00
64933;BME280;51446;53.850;10.662;2024-01-25T12:15:32;102298.47;;;8.65;100.00
64933;BME280;51446;53.850;10.662;2024-01-25T12:17:58;102302.72;;;8.45;100.00
64933;BME280;51446;53.850;10.662;2024-01-25T12:20:24;102308.19;;;8.49;100.00
64933;BME280;51446;53.850;10.662;2024-01-25T12:22:49;102305.16;;;8.42;100.00
64933;BME280;51446;53.850;10.662;2024-01-25T12:25:15;102296.63;;;8.28;100.00
64933;BME280;51446;53.850;10.662;2024-01-25T12:27:40;102303.34;;;8.41;100.00
64933;BME280;51446;53.850;10.662;2024-01-25T12:30:06;102310.19;;;8.55;100.00
64933;BME280;51446;53.850;10.662;2024-01-25T12:32:34;102315.25;;;8.34;100.00
64933;BME280;51446;53.850;10.662;2024-01-25T12:35:00;102316.28;;;8.38;100.00
64933;BME280;51446;53.850;10.662;2024-01-25T12:37:26;102316.56;;;8.26;100.00
64933;BME280;51446;53.850;10.662;2024-01-25T12:39:53;102308.53;;;8.05;100.00
64933;BME280;51446;53.850;10.662;2024-01-25T12:42:19;102322.59;;;7.90;100.00
64933;BME280;51446;53.850;10.662;2024-01-25T12:44:45;102304.41;;;7.92;100.00
64933;BME280;51446;53.850;10.662;2024-01-25T12:47:13;102297.34;;;8.07;100.00
64933;BME280;51446;53.850;10.662;2024-01-25T12:49:42;102299.50;;;7.98;100.00